Time;durP1;ratioP1;P1;durP2;ratioP2;P2;SDS_P1;SDS_P2;PMS_P1;PMS_P2;Temp;Humidity;BMP_temperature;BMP_pressure;BME280_temperature;BME280_humidity;BME280_pressure;Samples;Min_cycle;Max_cycle;Signal;HPM_P1;HPM_P2
2022/02/17 00:00:35;;;;;;;0.30;0.20;;;15.10;1.00;;;;;;5111596;28;21119;-66
2022/02/17 00:03:01;;;;;;;0.30;0.20;;;15.10;1.00;;;;;;5080250;28;20477;-65
2022/02/17 00:05:27;;;;;;;0.30;0.20;;;;;;;;;;5095968;28;20418;-65
2022/02/17 00:07:54;;;;;;;3.43;0.30;;;15.20;1.00;;;;;;5111553;28;20190;-65
2022/02/17 00:10:23;;;;;;;0.30;0.20;;;15.30;1.00;;;;;;5110183;28;20964;-65
2022/02/17 00:12:49;;;;;;;0.30;0.20;;;15.30;1.00;;;;;;5109334;28;20422;-66
2022/02/17 00:15:15;;;;;;;0.43;0.20;;;15.30;1.00;;;;;;5099766;28;20436;-66
2022/02/17 00:17:40;;;;;;;0.70;0.20;;;15.40;1.00;;;;;;5103214;28;20497;-66
2022/02/17 00:20:08;;;;;;;0.20;0.20;;;15.40;1.00;;;;;;5101042;28;20542;-66
2022/02/17 00:22:34;;;;;;;0.50;0.30;;;;;;;;;;5111672;28;20178;-65
2022/02/17 00:25:00;;;;;;;0.30;0.30;;;15.40;1.00;;;;;;5096349;28;20454;-65
2022/02/17 00:27:25;;;;;;;0.80;0.40;;;15.40;1.00;;;;;;5102149;28;20438;-65
2022/02/17 00:29:51;;;;;;;0.50;0.30;;;15.40;1.00;;;;;;5106027;28;20214;-64
2022/02/17 00:32:19;;;;;;;0.30;0.20;;;15.40;1.00;;;;;;5103309;28;20175;-64
2022/02/17 00:34:44;;;;;;;0.40;0.23;;;15.50;1.00;;;;;;5108940;28;20230;-64
2022/02/17 00:37:10;;;;;;;0.43;0.20;;;15.50;1.00;;;;;;5100650;28;20483;-64
2022/02/17 00:39:35;;;;;;;1.30;0.20;;;15.50;1.00;;;;;;5096734;28;20301;-64
2022/02/17 00:42:02;;;;;;;0.30;0.20;;;15.50;1.00;;;;;;5104880;28;20183;-64
2022/02/17 00:44:28;;;;;;;0.40;0.30;;;15.50;1.00;;;;;;5096025;28;20185;-64
2022/02/17 00:46:57;;;;;;;0.93;0.40;;;15.60;1.00;;;;;;5097678;28;20505;-65
2022/02/17 00:49:28;;;;;;;0.30;0.20;;;15.70;1.00;;;;;;5088563;28;20205;-65
2022/02/17 00:51:55;;;;;;;0.40;0.20;;;15.70;1.00;;;;;;5101625;28;20402;-65
2022/02/17 00:54:20;;;;;;;0.30;0.20;;;15.60;1.00;;;;;;5098249;28;20441;-65
2022/02/17 00:56:46;;;;;;;0.40;0.20;;;;;;;;;;5105981;28;20454;-65
2022/02/17 00:59:12;;;;;;;0.20;0.20;;;15.70;1.00;;;;;;5103548;28;20217;-65
2022/02/17 01:01:39;;;;;;;0.20;0.20;;;15.70;1.00;;;;;;5100980;28;20494;-64
2022/02/17 01:04:05;;;;;;;0.20;0.10;;;15.70;1.00;;;;;;5105265;28;20457;-64
2022/02/17 01:06:31;;;;;;;0.30;0.30;;;;;;;;;;5096117;28;20452;-65
2022/02/17 01:08:56;;;;;;;0.30;0.20;;;15.70;1.00;;;;;;5099028;28;20528;-64
2022/02/17 01:11:22;;;;;;;0.30;0.20;;;15.70;1.00;;;;;;5103943;28;20528;-65
2022/02/17 01:13:48;;;;;;;0.30;0.20;;;15.70;1.00;;;;;;5101643;28;20265;-64
2022/02/17 01:16:14;;;;;;;0.20;0.20;;;15.80;1.00;;;;;;5105503;28;20530;-64
2022/02/17 01:18:39;;;;;;;0.30;0.20;;;15.70;1.00;;;;;;5101187;28;20255;-64
2022/02/17 01:21:05;;;;;;;0.20;0.10;;;15.70;1.00;;;;;;5106341;28;20194;-63
2022/02/17 01:23:31;;;;;;;0.30;0.20;;;15.60;1.00;;;;;;5108939;28;20182;-64
2022/02/17 01:25:57;;;;;;;0.20;0.20;;;15.70;1.00;;;;;;5100340;28;20244;-64
2022/02/17 01:28:22;;;;;;;0.30;0.20;;;15.60;1.00;;;;;;5107124;28;21043;-64
2022/02/17 01:30:48;;;;;;;0.67;0.40;;;15.70;1.00;;;;;;5101172;28;20209;-65
2022/02/17 01:33:13;;;;;;;0.20;0.10;;;15.70;1.00;;;;;;5059994;28;20200;-64
2022/02/17 01:35:39;;;;;;;0.97;0.20;;;15.70;1.00;;;;;;5093532;28;20191;-65
2022/02/17 01:38:05;;;;;;;1.57;0.20;;;15.60;1.00;;;;;;5103794;28;20190;-65
2022/02/17 01:40:31;;;;;;;0.40;0.20;;;15.60;1.00;;;;;;5110508;28;20235;-65
2022/02/17 01:42:56;;;;;;;0.30;0.20;;;15.70;1.00;;;;;;5106559;28;20639;-65
2022/02/17 01:45:22;;;;;;;0.30;0.30;;;15.70;1.00;;;;;;5106434;28;20432;-64
2022/02/17 01:47:48;;;;;;;0.90;0.20;;;15.70;1.00;;;;;;5096189;28;20221;-65
2022/02/17 01:50:15;;;;;;;0.20;0.20;;;15.60;1.00;;;;;;5096803;28;20305;-65
2022/02/17 01:52:41;;;;;;;0.30;0.20;;;15.70;1.00;;;;;;5098119;28;20477;-65
2022/02/17 01:55:07;;;;;;;0.30;0.23;;;15.70;1.00;;;;;;5090587;28;20496;-64
2022/02/17 01:57:34;;;;;;;0.30;0.30;;;15.70;1.00;;;;;;5106826;28;20423;-66
2022/02/17 02:00:00;;;;;;;0.30;0.20;;;;;;;;;;5101635;28;20447;-64
2022/02/17 02:02:27;;;;;;;3.40;0.30;;;15.70;1.00;;;;;;5104086;28;20451;-66
2022/02/17 02:04:53;;;;;;;0.33;0.20;;;15.60;1.00;;;;;;5103767;28;20603;-65
2022/02/17 02:07:19;;;;;;;0.30;0.20;;;15.60;1.00;;;;;;5092813;28;20452;-65
2022/02/17 02:09:44;;;;;;;0.30;0.20;;;15.60;1.00;;;;;;5097873;28;20472;-65
2022/02/17 02:12:11;;;;;;;1.60;0.20;;;15.60;1.00;;;;;;5103151;28;20449;-65
2022/02/17 02:14:47;;;;;;;0.20;0.20;;;15.60;1.00;;;;;;5107096;28;20210;-64
2022/02/17 02:17:13;;;;;;;0.30;0.20;;;15.60;1.00;;;;;;5106545;28;20449;-64
2022/02/17 02:19:38;;;;;;;0.40;0.30;;;15.60;1.00;;;;;;5107761;28;20472;-66
2022/02/17 02:22:04;;;;;;;0.73;0.20;;;15.60;1.00;;;;;;5106435;28;20182;-64
2022/02/17 02:24:30;;;;;;;0.20;0.17;;;15.70;1.00;;;;;;5103308;28;20194;-64
2022/02/17 02:26:56;;;;;;;0.30;0.20;;;;;;;;;;5097852;28;20181;-65
2022/02/17 02:29:22;;;;;;;0.30;0.20;;;15.70;1.00;;;;;;5096351;28;20821;-65
2022/02/17 02:31:47;;;;;;;0.30;0.20;;;15.60;1.00;;;;;;5107627;28;20831;-64
2022/02/17 02:34:13;;;;;;;0.30;0.20;;;15.70;1.00;;;;;;5101412;28;20550;-64
2022/02/17 02:36:38;;;;;;;0.40;0.20;;;15.70;1.00;;;;;;5107427;28;20186;-64
2022/02/17 02:39:04;;;;;;;0.87;0.20;;;15.70;1.00;;;;;;5100215;28;20201;-65
2022/02/17 02:41:30;;;;;;;0.30;0.30;;;15.70;1.00;;;;;;5104610;28;20193;-65
2022/02/17 02:43:59;;;;;;;0.33;0.20;;;15.60;1.00;;;;;;5103521;28;20186;-65
2022/02/17 02:46:25;;;;;;;0.30;0.20;;;15.60;1.00;;;;;;5094575;28;20197;-65
2022/02/17 02:48:51;;;;;;;0.37;0.27;;;;;;;;;;5109984;28;20427;-66
2022/02/17 02:51:16;;;;;;;0.87;0.30;;;15.30;1.00;;;;;;5103229;28;20190;-65
2022/02/17 02:53:42;;;;;;;0.30;0.20;;;15.20;1.00;;;;;;5097665;28;20464;-65
2022/02/17 02:56:07;;;;;;;0.40;0.30;;;15.10;1.00;;;;;;5098999;28;20191;-65
2022/02/17 02:58:33;;;;;;;0.40;0.20;;;15.00;1.00;;;;;;5102176;28;20182;-66
2022/02/17 03:00:59;;;;;;;0.50;0.30;;;14.80;1.00;;;;;;5105168;28;20178;-66
2022/02/17 03:03:24;;;;;;;0.30;0.20;;;14.90;1.00;;;;;;5103345;28;20268;-65
2022/02/17 03:05:50;;;;;;;0.50;0.43;;;;;;;;;;5104577;28;20214;-66
2022/02/17 03:08:16;;;;;;;0.40;0.20;;;;;;;;;;5109253;28;20260;-65
2022/02/17 03:10:44;;;;;;;0.30;0.20;;;14.90;1.00;;;;;;5109978;28;20471;-65
2022/02/17 03:13:10;;;;;;;0.53;0.20;;;14.90;1.00;;;;;;5101374;28;20911;-67
2022/02/17 03:15:35;;;;;;;0.67;0.40;;;14.90;1.00;;;;;;5105741;28;20450;-65
2022/02/17 03:18:01;;;;;;;0.70;0.20;;;14.80;1.00;;;;;;5096241;28;20179;-66
2022/02/17 03:20:27;;;;;;;0.40;0.30;;;14.80;1.00;;;;;;5096928;28;20757;-65
2022/02/17 03:22:53;;;;;;;0.43;0.30;;;14.80;1.00;;;;;;5097202;28;20490;-65
2022/02/17 03:25:18;;;;;;;1.00;0.33;;;14.80;1.00;;;;;;5096354;28;20604;-66
2022/02/17 03:27:44;;;;;;;1.50;0.40;;;14.90;1.00;;;;;;5094825;28;20178;-64
2022/02/17 03:30:11;;;;;;;0.80;0.50;;;14.40;1.00;;;;;;5079602;28;20255;-64
2022/02/17 03:32:38;;;;;;;1.13;0.40;;;13.80;1.00;;;;;;5105406;28;20174;-63
2022/02/17 03:35:05;;;;;;;0.93;0.37;;;13.40;1.00;;;;;;5109675;28;20962;-64
2022/02/17 03:37:31;;;;;;;0.83;0.83;;;;;;;;;;5096571;28;20441;-64
2022/02/17 03:39:57;;;;;;;0.60;0.30;;;;;;;;;;5107527;28;20499;-66
2022/02/17 03:42:23;;;;;;;1.13;0.30;;;;;;;;;;5108374;28;20455;-66
2022/02/17 03:44:48;;;;;;;0.93;0.60;;;13.00;99.90;;;;;;5099247;28;20444;-66
2022/02/17 03:47:14;;;;;;;1.83;0.47;;;13.00;99.90;;;;;;5111710;28;20439;-65
2022/02/17 03:49:40;;;;;;;0.67;0.50;;;13.00;99.90;;;;;;5111830;28;20217;-65
2022/02/17 03:52:06;;;;;;;0.83;0.47;;;12.90;99.90;;;;;;5107558;28;20468;-65
2022/02/17 03:54:32;;;;;;;3.60;0.67;;;12.80;99.90;;;;;;5107028;28;20178;-66
2022/02/17 03:56:57;;;;;;;1.70;0.70;;;12.70;99.90;;;;;;5111588;28;20440;-65
2022/02/17 03:59:23;;;;;;;0.60;0.40;;;12.80;99.90;;;;;;5086190;28;20194;-65
2022/02/17 04:01:49;;;;;;;0.53;0.47;;;12.80;99.90;;;;;;5103467;28;20197;-65
2022/02/17 04:04:14;;;;;;;0.40;0.40;;;12.70;99.90;;;;;;5108255;28;20221;-65
2022/02/17 04:06:40;;;;;;;1.37;0.50;;;12.80;99.90;;;;;;5099287;28;20194;-66
2022/02/17 04:09:06;;;;;;;0.40;0.40;;;12.60;99.90;;;;;;5103272;28;20194;-66
2022/02/17 04:11:33;;;;;;;4.10;0.60;;;12.60;99.90;;;;;;5105523;28;20670;-66
2022/02/17 04:13:59;;;;;;;0.30;0.30;;;;;;;;;;5107695;28;20270;-67
2022/02/17 04:16:24;;;;;;;1.17;0.87;;;12.70;99.90;;;;;;5096115;28;20444;-67
2022/02/17 04:18:50;;;;;;;0.83;0.63;;;12.20;99.90;;;;;;5100485;28;20439;-66
2022/02/17 04:21:17;;;;;;;1.67;0.60;;;11.60;99.90;;;;;;5103208;28;20189;-66
2022/02/17 04:23:44;;;;;;;2.40;0.90;;;11.20;99.90;;;;;;5107409;28;20635;-64
2022/02/17 04:26:14;;;;;;;0.83;0.70;;;11.10;99.90;;;;;;5096463;28;20443;-65
2022/02/17 04:28:41;;;;;;;2.87;1.00;;;10.70;99.90;;;;;;5106704;28;20495;-63
2022/02/17 04:31:08;;;;;;;3.80;0.97;;;10.20;99.90;;;;;;5102836;28;21740;-62
2022/02/17 04:33:34;;;;;;;1.73;0.57;;;9.30;99.90;;;;;;5102853;28;20540;-63
2022/02/17 04:36:00;;;;;;;4.57;1.47;;;;;;;;;;5095959;28;20510;-64
2022/02/17 04:38:25;;;;;;;2.30;0.90;;;9.20;99.90;;;;;;5095348;28;20444;-64
2022/02/17 04:43:35;;;;;;;1.37;0.70;;;9.20;99.90;;;;;;5101160;28;20236;-66
2022/02/17 04:46:01;;;;;;;2.23;1.27;;;9.30;99.90;;;;;;5087160;28;20451;-65
2022/02/17 04:48:27;;;;;;;7.23;1.47;;;9.40;99.90;;;;;;5109606;28;20182;-64
2022/02/17 04:50:53;;;;;;;2.10;0.90;;;;;;;;;;5111719;28;20992;-65
2022/02/17 04:53:18;;;;;;;3.13;0.90;;;9.30;99.90;;;;;;5107415;28;20236;-64
2022/02/17 04:55:44;;;;;;;2.67;1.00;;;9.30;99.90;;;;;;5107767;28;20485;-65
2022/02/17 04:58:10;;;;;;;5.90;0.97;;;9.20;99.90;;;;;;5107514;28;20635;-63
2022/02/17 05:00:36;;;;;;;5.63;1.00;;;;;;;;;;5103364;28;20189;-63
2022/02/17 05:03:02;;;;;;;1.10;0.67;;;;;;;;;;5103125;28;20198;-63
2022/02/17 05:05:27;;;;;;;1.50;0.60;;;8.80;99.90;;;;;;5108493;28;20440;-63
2022/02/17 05:07:53;;;;;;;2.40;0.50;;;8.80;99.90;;;;;;5100945;28;20484;-63
2022/02/17 05:10:18;;;;;;;2.03;0.53;;;8.50;99.90;;;;;;5101558;28;20206;-60
2022/02/17 05:12:44;;;;;;;2.63;0.73;;;8.50;99.90;;;;;;5108378;28;20643;-61
2022/02/17 05:15:10;;;;;;;5.73;1.10;;;8.40;99.90;;;;;;5107240;28;20246;-60
2022/02/17 05:17:35;;;;;;;1.90;0.60;;;8.40;99.90;;;;;;5103160;28;20261;-62
2022/02/17 05:20:01;;;;;;;2.87;0.70;;;8.40;99.90;;;;;;5110192;28;20190;-61
2022/02/17 05:22:26;;;;;;;1.30;0.70;;;8.30;99.90;;;;;;5101691;28;20322;-63
2022/02/17 05:24:53;;;;;;;4.00;0.70;;;8.30;99.90;;;;;;5101364;28;21127;-64
2022/02/17 05:27:18;;;;;;;0.67;0.60;;;8.40;99.90;;;;;;5102214;28;20210;-64
2022/02/17 05:29:44;;;;;;;2.00;0.50;;;8.50;99.90;;;;;;5103836;28;20503;-66
2022/02/17 05:32:10;;;;;;;2.60;0.80;;;8.40;99.90;;;;;;5099141;28;20182;-65
2022/02/17 05:34:36;;;;;;;2.70;1.23;;;8.40;99.90;;;;;;5108549;28;20182;-68
2022/02/17 05:37:02;;;;;;;2.67;0.53;;;;;;;;;;5083415;28;20806;-65
2022/02/17 05:39:28;;;;;;;1.43;0.70;;;;;;;;;;5102784;28;20436;-65
2022/02/17 05:41:54;;;;;;;1.47;0.50;;;8.40;99.90;;;;;;5105337;28;20436;-65
2022/02/17 05:44:19;;;;;;;0.80;0.50;;;8.40;99.90;;;;;;5098689;28;20773;-66
2022/02/17 05:46:45;;;;;;;0.90;0.40;;;;;;;;;;5099644;28;20455;-65
2022/02/17 05:49:11;;;;;;;2.13;0.67;;;8.50;99.90;;;;;;5099321;28;20471;-65
2022/02/17 05:51:37;;;;;;;0.63;0.40;;;8.50;99.90;;;;;;5104816;28;20464;-63
2022/02/17 05:54:03;;;;;;;1.83;0.40;;;8.60;99.90;;;;;;5099451;28;20218;-64
2022/02/17 05:56:28;;;;;;;0.97;0.60;;;8.60;99.90;;;;;;5102984;28;21507;-64
2022/02/17 05:58:54;;;;;;;0.70;0.50;;;8.60;99.90;;;;;;5098723;28;20178;-65
2022/02/17 06:01:19;;;;;;;2.63;0.67;;;8.70;99.90;;;;;;5107481;28;20178;-64
2022/02/17 06:03:45;;;;;;;0.80;0.80;;;8.70;99.90;;;;;;5103382;28;20636;-63
2022/02/17 06:06:10;;;;;;;0.60;0.60;;;8.80;99.90;;;;;;5100762;28;20528;-64
2022/02/17 06:08:36;;;;;;;2.20;0.77;;;8.90;99.90;;;;;;5096009;28;20183;-64
2022/02/17 06:11:02;;;;;;;2.20;0.80;;;8.90;99.90;;;;;;5085779;28;20225;-62
2022/02/17 06:13:27;;;;;;;0.70;0.40;;;9.00;99.90;;;;;;5107763;28;20276;-65
2022/02/17 06:15:53;;;;;;;1.03;0.50;;;9.10;99.90;;;;;;5098606;28;20930;-64
2022/02/17 06:18:18;;;;;;;2.20;0.70;;;;;;;;;;5092755;28;20182;-65
2022/02/17 06:20:44;;;;;;;1.40;1.20;;;;;;;;;;5100678;28;20242;-65
2022/02/17 06:23:10;;;;;;;0.70;0.50;;;;;;;;;;5102593;28;20444;-66
2022/02/17 06:25:36;;;;;;;0.50;0.50;;;9.10;99.90;;;;;;5104076;28;20447;-65
2022/02/17 06:28:03;;;;;;;0.80;0.50;;;9.20;99.90;;;;;;5098440;28;20448;-67
2022/02/17 06:30:30;;;;;;;0.70;0.70;;;;;;;;;;5108047;28;20721;-66
2022/02/17 06:32:56;;;;;;;0.90;0.60;;;9.20;99.90;;;;;;5103703;28;20432;-67
2022/02/17 06:35:24;;;;;;;1.87;0.90;;;9.30;99.90;;;;;;5105509;28;21219;-67
2022/02/17 06:37:50;;;;;;;1.63;0.70;;;;;;;;;;5090490;28;20441;-68
2022/02/17 06:40:18;;;;;;;4.47;1.83;;;9.40;99.90;;;;;;5095032;28;20451;-68
2022/02/17 06:42:45;;;;;;;3.07;1.00;;;9.50;99.90;;;;;;5102125;28;20437;-68
2022/02/17 06:45:11;;;;;;;3.40;2.87;;;9.60;99.90;;;;;;5103852;28;20905;-68
2022/02/17 06:47:37;;;;;;;1.70;1.07;;;9.60;99.90;;;;;;5100898;28;20486;-70
2022/02/17 06:50:04;;;;;;;6.70;1.50;;;9.60;99.90;;;;;;5091533;28;20476;-69
2022/02/17 06:52:30;;;;;;;1.43;0.80;;;9.60;99.90;;;;;;5103954;28;20703;-69
2022/02/17 06:54:55;;;;;;;4.83;1.20;;;9.70;94.20;;;;;;5077112;28;20470;-68
2022/02/17 06:57:22;;;;;;;3.33;1.20;;;;;;;;;;5093936;28;20183;-65
2022/02/17 06:59:52;;;;;;;1.80;1.23;;;8.90;99.90;;;;;;5103937;28;20182;-69
2022/02/17 07:02:25;;;;;;;3.70;1.23;;;8.80;99.90;;;;;;5100964;28;20451;-69
2022/02/17 07:04:51;;;;;;;9.00;1.40;;;8.60;99.90;;;;;;5103596;28;20539;-71
2022/02/17 07:07:17;;;;;;;2.77;1.10;;;8.60;99.90;;;;;;5091717;28;20444;-70
2022/02/17 07:09:43;;;;;;;4.33;1.70;;;8.60;99.90;;;;;;5073899;28;20523;-69
2022/02/17 07:12:09;;;;;;;3.67;1.03;;;8.50;99.90;;;;;;5092445;28;21473;-70
2022/02/17 07:14:35;;;;;;;6.00;1.10;;;;;;;;;;5092420;28;20702;-69
2022/02/17 07:17:01;;;;;;;1.37;1.07;;;8.40;99.90;;;;;;5090973;28;20441;-70
2022/02/17 07:19:27;;;;;;;1.80;1.07;;;;;;;;;;5090861;28;20447;-69
2022/02/17 07:21:53;;;;;;;3.43;1.43;;;8.50;99.90;;;;;;5089310;28;20183;-68
2022/02/17 07:24:20;;;;;;;2.80;1.20;;;8.50;99.90;;;;;;5089600;28;20929;-69
2022/02/17 07:26:46;;;;;;;1.57;1.20;;;8.50;99.90;;;;;;5099041;28;20439;-68
2022/02/17 07:29:12;;;;;;;1.30;1.20;;;8.60;70.80;;;;;;5112948;28;20948;-68
2022/02/17 07:31:38;;;;;;;5.17;1.43;;;8.70;22.50;;;;;;5110570;28;20449;-68
2022/02/17 07:34:03;;;;;;;1.90;1.00;;;8.80;1.00;;;;;;5099627;28;20443;-68
2022/02/17 07:36:29;;;;;;;0.97;0.40;;;8.80;1.00;;;;;;5101163;28;20189;-68
2022/02/17 07:38:55;;;;;;;1.30;0.80;;;;;;;;;;5094086;28;20175;-67
2022/02/17 07:41:21;;;;;;;3.33;1.00;;;8.80;1.00;;;;;;5097851;28;20429;-65
2022/02/17 07:43:47;;;;;;;1.80;0.70;;;8.90;1.00;;;;;;5103481;28;20554;-65
2022/02/17 07:46:12;;;;;;;0.87;0.80;;;9.00;1.00;;;;;;5095556;28;20278;-65
2022/02/17 07:48:39;;;;;;;1.57;0.73;;;9.10;1.00;;;;;;5099698;28;20201;-63
2022/02/17 07:51:04;;;;;;;1.50;0.70;;;9.10;1.00;;;;;;5097682;28;20209;-64
2022/02/17 07:53:33;;;;;;;2.53;1.13;;;;;;;;;;5104304;28;20558;-65
2022/02/17 07:55:59;;;;;;;3.63;0.90;;;9.10;1.00;;;;;;5107017;28;20193;-64
2022/02/17 07:58:26;;;;;;;2.30;0.70;;;9.00;1.00;;;;;;5106349;28;20428;-65
2022/02/17 08:00:52;;;;;;;2.30;1.07;;;9.00;1.00;;;;;;5094458;28;20441;-65
2022/02/17 08:03:17;;;;;;;1.13;0.73;;;;;;;;;;5107678;28;20444;-65
2022/02/17 08:05:45;;;;;;;3.97;0.90;;;;;;;;;;5100159;28;20205;-64
2022/02/17 08:08:11;;;;;;;0.83;0.70;;;8.90;1.00;;;;;;5094328;28;20419;-65
2022/02/17 08:10:37;;;;;;;1.90;1.17;;;9.00;1.00;;;;;;5093153;28;20439;-66
2022/02/17 08:13:05;;;;;;;4.00;0.93;;;9.10;1.00;;;;;;5100322;28;20444;-64
2022/02/17 08:15:30;;;;;;;2.40;1.00;;;9.20;1.00;;;;;;5101361;28;20444;-63
2022/02/17 08:17:56;;;;;;;0.93;0.53;;;9.30;1.00;;;;;;5105831;28;20523;-64
2022/02/17 08:20:22;;;;;;;3.40;0.90;;;9.30;1.00;;;;;;5102127;28;20194;-63
2022/02/17 08:22:49;;;;;;;3.77;1.20;;;9.40;1.00;;;;;;5107946;28;20198;-65
2022/02/17 08:25:15;;;;;;;4.60;1.30;;;;;;;;;;5107363;28;20562;-65
2022/02/17 08:27:41;;;;;;;2.33;0.97;;;9.50;1.00;;;;;;5099394;28;20444;-64
2022/02/17 08:30:07;;;;;;;1.13;0.97;;;9.60;1.00;;;;;;5097472;28;20463;-65
2022/02/17 08:32:36;;;;;;;3.73;1.20;;;9.60;1.00;;;;;;5078379;28;20175;-64
2022/02/17 08:35:04;;;;;;;3.20;0.83;;;9.60;1.00;;;;;;5109015;28;20428;-65
2022/02/17 08:37:29;;;;;;;2.17;0.93;;;9.70;1.00;;;;;;5096430;28;20526;-62
2022/02/17 08:39:55;;;;;;;5.93;1.23;;;9.70;1.00;;;;;;5091644;28;20836;-65
2022/02/17 08:42:21;;;;;;;3.40;1.03;;;;;;;;;;5093673;28;20687;-63
2022/02/17 08:44:46;;;;;;;2.50;1.03;;;9.90;1.00;;;;;;5106469;28;20633;-63
2022/02/17 08:47:14;;;;;;;2.93;1.20;;;9.90;1.00;;;;;;5088443;28;20459;-63
2022/02/17 08:49:40;;;;;;;1.97;1.07;;;10.00;1.00;;;;;;5092896;28;20718;-64
2022/02/17 08:52:05;;;;;;;4.53;1.63;;;10.10;1.00;;;;;;5101554;28;20446;-64
2022/02/17 08:54:31;;;;;;;5.07;1.53;;;10.20;1.00;;;;;;5093919;28;20184;-63
2022/02/17 08:56:57;;;;;;;3.10;0.80;;;10.20;1.00;;;;;;5092415;28;20209;-62
2022/02/17 08:59:22;;;;;;;4.10;1.03;;;10.30;1.00;;;;;;5104299;28;20194;-64
2022/02/17 09:01:48;;;;;;;2.07;1.10;;;10.10;1.00;;;;;;5091889;28;20187;-62
2022/02/17 09:04:13;;;;;;;3.87;0.90;;;10.10;1.00;;;;;;5109263;28;20186;-63
2022/02/17 09:06:39;;;;;;;2.10;1.07;;;10.30;1.00;;;;;;5105202;28;20249;-63
2022/02/17 09:09:06;;;;;;;3.70;1.23;;;10.30;1.00;;;;;;5099679;28;20197;-64
2022/02/17 09:11:32;;;;;;;2.57;1.20;;;10.20;1.00;;;;;;5100072;28;20448;-63
2022/02/17 09:13:58;;;;;;;4.53;1.23;;;;;;;;;;5104786;28;20286;-63
2022/02/17 09:16:24;;;;;;;3.10;1.30;;;;;;;;;;5110745;28;20859;-63
2022/02/17 09:18:50;;;;;;;3.67;1.13;;;;;;;;;;5103910;28;20829;-63
2022/02/17 09:21:16;;;;;;;4.43;1.20;;;10.20;1.00;;;;;;5110047;28;20466;-62
2022/02/17 09:23:43;;;;;;;2.63;1.20;;;10.20;1.00;;;;;;5091964;28;21343;-62
2022/02/17 09:26:08;;;;;;;4.00;1.40;;;10.20;1.00;;;;;;5092149;28;20452;-62
2022/02/17 09:28:35;;;;;;;3.57;1.57;;;10.20;1.00;;;;;;5098098;28;20810;-63
2022/02/17 09:31:01;;;;;;;2.20;1.10;;;10.30;1.00;;;;;;5103441;28;20206;-62
2022/02/17 09:33:26;;;;;;;1.70;1.17;;;10.30;1.00;;;;;;5094879;28;20477;-62
2022/02/17 09:35:53;;;;;;;3.43;1.10;;;10.50;1.00;;;;;;5091355;28;20200;-63
2022/02/17 09:38:19;;;;;;;1.80;0.90;;;;;;;;;;5094025;28;20186;-61
2022/02/17 09:40:46;;;;;;;1.70;0.83;;;10.50;1.00;;;;;;5095219;28;20453;-61
2022/02/17 09:43:12;;;;;;;1.53;0.93;;;;;;;;;;5109252;28;20450;-62
2022/02/17 09:45:44;;;;;;;1.43;0.70;;;10.40;1.00;;;;;;5106600;28;20445;-63
2022/02/17 09:48:11;;;;;;;4.40;0.77;;;10.30;1.00;;;;;;5092904;28;20540;-64
2022/02/17 09:50:36;;;;;;;1.40;0.77;;;10.20;1.00;;;;;;5089318;28;20938;-64
2022/02/17 09:53:02;;;;;;;3.30;1.00;;;10.30;1.00;;;;;;5092435;28;20471;-63
2022/02/17 09:55:29;;;;;;;5.50;1.53;;;10.30;1.00;;;;;;5092245;28;20189;-63
2022/02/17 09:57:55;;;;;;;7.67;1.00;;;10.20;1.00;;;;;;5090089;28;20427;-63
2022/02/17 10:00:21;;;;;;;2.13;0.90;;;10.10;1.00;;;;;;5090617;28;20429;-63
2022/02/17 10:02:46;;;;;;;1.90;0.70;;;;;;;;;;5096024;28;20286;-63
2022/02/17 10:05:12;;;;;;;2.73;1.10;;;10.10;1.00;;;;;;5096713;28;20178;-62
2022/02/17 10:07:40;;;;;;;2.37;0.80;;;10.10;1.00;;;;;;5077598;28;20464;-63
2022/02/17 10:10:13;;;;;;;1.80;1.23;;;10.20;1.00;;;;;;5092917;28;20210;-63
2022/02/17 10:13:01;;;;;;;1.10;0.60;;;10.10;1.00;;;;;;5108106;28;20434;-64
2022/02/17 10:15:32;;;;;;;1.23;0.50;;;10.10;1.00;;;;;;5088351;28;20889;-64
2022/02/17 10:18:03;;;;;;;2.80;0.70;;;10.20;1.00;;;;;;5093521;28;20448;-64
2022/02/17 10:20:29;;;;;;;4.10;0.83;;;;;;;;;;5108726;28;20442;-64
2022/02/17 10:23:06;;;;;;;3.90;0.80;;;10.30;1.00;;;;;;5094846;28;20437;-63
2022/02/17 10:25:32;;;;;;;2.43;0.80;;;10.40;1.00;;;;;;5100718;28;20472;-63
2022/02/17 10:27:58;;;;;;;5.37;1.13;;;;;;;;;;5095266;28;20444;-61
2022/02/17 10:30:23;;;;;;;3.83;0.80;;;10.00;1.00;;;;;;5092464;28;20355;-64
2022/02/17 10:33:07;;;;;;;5.97;1.83;;;10.30;1.00;;;;;;5091790;28;20448;-64
2022/02/17 10:35:32;;;;;;;2.30;0.90;;;10.10;1.00;;;;;;5071952;28;20711;-63
2022/02/17 10:38:00;;;;;;;2.53;0.93;;;10.10;1.00;;;;;;5072217;28;20520;-63
2022/02/17 10:40:33;;;;;;;2.20;0.80;;;10.00;1.00;;;;;;5078078;28;20193;-64
2022/02/17 10:43:04;;;;;;;2.00;0.77;;;10.00;1.00;;;;;;5098210;28;20966;-64
2022/02/17 10:45:30;;;;;;;2.53;1.33;;;10.00;1.00;;;;;;5098016;28;20443;-64
2022/02/17 10:48:15;;;;;;;1.80;0.50;;;9.90;1.00;;;;;;5096186;28;20446;-64
2022/02/17 10:50:46;;;;;;;0.87;0.50;;;10.00;1.00;;;;;;5104477;28;20471;-64
2022/02/17 10:53:25;;;;;;;1.77;0.70;;;10.00;1.00;;;;;;5101388;28;20491;-65
2022/02/17 10:55:59;;;;;;;3.07;1.03;;;10.00;1.00;;;;;;5094453;28;20443;-65
2022/02/17 10:58:28;;;;;;;2.93;1.07;;;10.00;1.00;;;;;;5109168;28;20450;-65
2022/02/17 11:00:59;;;;;;;2.70;0.90;;;10.10;1.00;;;;;;5099362;28;20448;-65
2022/02/17 11:03:29;;;;;;;2.43;1.00;;;10.10;1.00;;;;;;5113928;28;20448;-65
2022/02/17 11:05:55;;;;;;;2.67;1.10;;;10.40;1.00;;;;;;5099724;28;20443;-65
2022/02/17 11:08:20;;;;;;;5.57;1.77;;;10.70;1.00;;;;;;5100236;28;20431;-65
2022/02/17 11:10:46;;;;;;;5.17;1.10;;;10.70;1.00;;;;;;5110545;28;20438;-65
2022/02/17 11:13:20;;;;;;;2.77;1.17;;;10.60;1.00;;;;;;5095988;28;20182;-65
2022/02/17 11:15:47;;;;;;;3.50;1.20;;;10.70;1.00;;;;;;5112387;28;20608;-65
2022/02/17 11:18:15;;;;;;;4.30;1.00;;;10.70;1.00;;;;;;5104011;28;20439;-65
2022/02/17 11:20:42;;;;;;;4.13;1.10;;;10.70;1.00;;;;;;5101520;28;20741;-65
2022/02/17 11:23:08;;;;;;;2.70;0.90;;;10.30;1.00;;;;;;5098077;28;20767;-65
2022/02/17 11:25:39;;;;;;;3.23;1.20;;;10.20;1.00;;;;;;5094165;28;20959;-65
2022/02/17 11:28:06;;;;;;;4.20;1.17;;;10.20;1.00;;;;;;5111889;28;20528;-65
2022/02/17 11:30:33;;;;;;;2.87;0.77;;;10.30;1.00;;;;;;5094523;28;20457;-65
2022/02/17 11:33:18;;;;;;;2.43;1.07;;;10.50;1.00;;;;;;5075317;28;20524;-65
2022/02/17 11:35:44;;;;;;;1.50;0.83;;;10.80;1.00;;;;;;5094315;28;21019;-65
2022/02/17 11:38:26;;;;;;;3.80;0.90;;;10.90;1.00;;;;;;5095212;28;20431;-65
2022/02/17 11:41:12;;;;;;;2.63;1.07;;;10.70;1.00;;;;;;5111856;28;20193;-65
2022/02/17 11:43:49;;;;;;;5.47;1.00;;;10.70;1.00;;;;;;5098491;28;20967;-65
2022/02/17 11:46:35;;;;;;;5.47;1.20;;;10.60;1.00;;;;;;5111980;28;20441;-65
2022/02/17 11:49:04;;;;;;;1.93;0.97;;;10.60;1.00;;;;;;5099707;28;20531;-65
2022/02/17 11:51:29;;;;;;;1.90;1.07;;;10.90;1.00;;;;;;5103070;28;20433;-65
2022/02/17 11:54:15;;;;;;;5.70;1.67;;;10.80;1.00;;;;;;5096659;28;20498;-64
2022/02/17 11:56:50;;;;;;;3.00;1.00;;;10.80;1.00;;;;;;5104941;28;20264;-65
2022/02/17 11:59:29;;;;;;;1.57;1.10;;;10.90;1.00;;;;;;5101069;28;20917;-65
2022/02/17 12:01:57;;;;;;;4.83;1.30;;;11.00;1.00;;;;;;5099194;28;20438;-65
2022/02/17 12:04:26;;;;;;;2.20;1.00;;;11.00;1.00;;;;;;5112448;28;20428;-65
2022/02/17 12:07:01;;;;;;;2.10;0.80;;;11.00;1.00;;;;;;5097791;28;20435;-65
2022/02/17 12:09:30;;;;;;;1.97;0.80;;;11.00;1.00;;;;;;5095893;28;21185;-65
2022/02/17 12:12:22;;;;;;;2.90;0.93;;;11.10;1.00;;;;;;5100540;28;20741;-65
2022/02/17 12:14:54;;;;;;;3.80;1.20;;;11.50;1.00;;;;;;5101445;28;20415;-65
2022/02/17 12:17:29;;;;;;;2.23;0.80;;;11.30;1.00;;;;;;5103784;28;20449;-64
2022/02/17 12:20:12;;;;;;;2.73;0.93;;;11.10;1.00;;;;;;5103845;28;20801;-64
2022/02/17 12:22:56;;;;;;;2.20;0.80;;;11.10;1.00;;;;;;5097742;28;20544;-65
2022/02/17 12:25:27;;;;;;;2.63;0.93;;;11.10;1.00;;;;;;5093640;28;20449;-65
2022/02/17 12:28:00;;;;;;;2.67;0.90;;;11.10;1.00;;;;;;5094229;28;20500;-65
2022/02/17 12:30:42;;;;;;;3.13;1.07;;;11.20;1.00;;;;;;5086616;28;20434;-65
2022/02/17 12:33:09;;;;;;;2.80;0.97;;;11.40;1.00;;;;;;5092145;28;20723;-65
2022/02/17 12:35:36;;;;;;;1.83;1.00;;;11.20;1.00;;;;;;5099763;28;20527;-64
2022/02/17 12:38:10;;;;;;;3.50;1.40;;;11.00;1.00;;;;;;5095865;28;20984;-66
2022/02/17 12:40:36;;;;;;;3.23;1.10;;;;;;;;;;5097436;28;20411;-66
2022/02/17 12:43:03;;;;;;;5.17;1.10;;;11.00;1.00;;;;;;5081871;28;20411;-66
2022/02/17 12:45:45;;;;;;;4.80;1.30;;;11.20;1.00;;;;;;5099979;28;20901;-66
2022/02/17 12:48:14;;;;;;;9.27;1.73;;;11.30;1.00;;;;;;5100519;28;20441;-66
2022/02/17 12:50:42;;;;;;;2.50;1.00;;;11.10;1.00;;;;;;5099873;28;21228;-66
2022/02/17 12:53:07;;;;;;;3.60;1.00;;;10.90;1.00;;;;;;5100745;28;20494;-66
2022/02/17 12:55:44;;;;;;;4.30;1.30;;;11.00;1.00;;;;;;5111212;28;20436;-65
2022/02/17 12:58:11;;;;;;;3.20;1.10;;;11.10;1.00;;;;;;5106269;28;20217;-66
2022/02/17 13:00:37;;;;;;;4.23;1.20;;;;;;;;;;5102549;28;20440;-66
2022/02/17 13:03:03;;;;;;;7.70;1.60;;;;;;;;;;5100448;28;20931;-66
2022/02/17 13:08:35;;;;;;;1.27;0.90;;;11.20;1.00;;;;;;5091139;28;20944;-65
2022/02/17 13:11:01;;;;;;;1.90;0.70;;;;;;;;;;5094428;28;20932;-66
2022/02/17 13:13:27;;;;;;;3.70;1.23;;;;;;;;;;5090997;28;20461;-66
2022/02/17 13:15:53;;;;;;;1.87;1.00;;;11.30;1.00;;;;;;5103586;28;20457;-66